CYCP

Blue River Airport

Blue River, British Columbia, Canada
METAR CYCP 151900Z 04006KT 4SM -SN BR SCT002 BKN046 OVC050 M06/M09 A2959 RMK SF3SC3SC2 SLP065
Observed Flight Rules
Feb-15 @ 19:00 UTC (30 minutes ago) Marginal Visual Flight Rules
Wind Visibility Clouds Conditions
40° at 6 knots 4 miles
  • Scattered at 200' AGL
  • Broken at 4,600' AGL
  • Overcast at 5,000' AGL
  • Light Snow
  • Mist
Temperatures Readings
Current -6°C / 21°F
Dewpoint -9°C / 16°F
Humidity 80%
Altimeter 29.59" Hg
Pressure 1006.5 hPa
Elevation 683
METAR CYCP 151900Z 04006KT 4SM -SN BR SCT002 BKN046 OVC050 M06/M09 A2959 RMK SF3SC3SC2 SLP065
Observed Flight Rules
Feb-15 @ 19:00 UTC
(30 minutes ago)
MVFR
Wind Visibility
40° at 6 knots 4 miles
Clouds
  • Scattered at 200' AGL
  • Broken at 4,600' AGL
  • Overcast at 5,000' AGL
Conditions
  • Light Snow
  • Mist
Temperature Dewpoint
-6°C / 21°F -9°C / 16°F
Humidity Altimeter Pressure
80% 29.59" Hg 1006.5 hPa